Time;durP1;ratioP1;P1;durP2;ratioP2;P2;SDS_P1;SDS_P2;PMS_P1;PMS_P2;Temp;Humidity;BMP_temperature;BMP_pressure;BME280_temperature;BME280_humidity;BME280_pressure;Samples;Min_cycle;Max_cycle;Signal;HPM_P1;HPM_P2
2021/10/18 00:01:11;;;;;;;2.55;1.33;;;7.50;99.90;;;;;;5082934;28;20104;-72
2021/10/18 00:03:37;;;;;;;2.50;1.33;;;7.50;99.90;;;;;;5059210;28;20155;-71
2021/10/18 00:06:03;;;;;;;3.85;1.65;;;7.60;99.90;;;;;;5060330;28;20024;-71
2021/10/18 00:08:29;;;;;;;2.10;1.40;;;7.70;99.90;;;;;;5077178;28;20012;-74
2021/10/18 00:10:55;;;;;;;3.22;1.42;;;7.90;99.90;;;;;;5082821;28;20097;-73
2021/10/18 00:13:21;;;;;;;2.83;1.38;;;8.20;99.90;;;;;;5078767;28;20074;-73
2021/10/18 00:15:46;;;;;;;4.03;1.60;;;8.30;99.90;;;;;;5062158;28;20028;-75
2021/10/18 00:18:12;;;;;;;4.72;2.17;;;8.30;99.90;;;;;;5072492;28;20023;-74
2021/10/18 00:20:38;;;;;;;2.78;1.42;;;8.30;99.90;;;;;;5068751;28;20012;-73
2021/10/18 00:23:04;;;;;;;2.08;1.30;;;8.30;99.90;;;;;;5075243;28;20365;-73
2021/10/18 00:25:29;;;;;;;4.10;1.88;;;8.30;99.90;;;;;;5071336;28;20550;-73
2021/10/18 00:27:55;;;;;;;2.53;1.33;;;8.30;99.90;;;;;;5058827;28;20021;-73
2021/10/18 00:30:21;;;;;;;2.80;1.10;;;8.20;99.90;;;;;;5080915;28;20048;-71
2021/10/18 00:32:46;;;;;;;1.83;1.15;;;8.20;99.90;;;;;;5079949;28;20460;-75
2021/10/18 00:35:12;;;;;;;6.43;1.75;;;8.20;99.90;;;;;;5081153;28;20028;-73
2021/10/18 00:37:38;;;;;;;3.63;1.45;;;8.20;99.90;;;;;;5085006;28;20111;-73
2021/10/18 00:40:06;;;;;;;3.40;1.55;;;8.20;99.90;;;;;;5077683;28;20426;-73
2021/10/18 00:42:32;;;;;;;2.22;1.27;;;8.10;99.90;;;;;;5075926;28;20155;-73
2021/10/18 00:44:57;;;;;;;3.55;1.60;;;8.10;99.90;;;;;;5080723;28;20095;-73
2021/10/18 00:47:23;;;;;;;2.55;1.63;;;8.10;99.90;;;;;;5073119;28;20022;-74
2021/10/18 00:49:49;;;;;;;4.72;1.85;;;8.10;99.90;;;;;;5080815;28;20016;-74
2021/10/18 00:52:17;;;;;;;4.07;1.58;;;7.90;99.90;;;;;;5080797;28;20081;-74
2021/10/18 00:54:46;;;;;;;4.25;1.85;;;7.90;99.90;;;;;;5074574;28;20103;-74
2021/10/18 00:57:13;;;;;;;6.85;1.92;;;7.90;99.90;;;;;;5066983;28;20079;-73
2021/10/18 00:59:39;;;;;;;6.68;1.83;;;7.70;99.90;;;;;;5082603;28;20023;-73
2021/10/18 01:02:05;;;;;;;1.48;1.00;;;7.70;99.90;;;;;;5077364;28;20500;-73
2021/10/18 01:04:31;;;;;;;3.75;1.70;;;7.80;99.90;;;;;;5077321;28;20055;-73
2021/10/18 01:06:57;;;;;;;2.60;1.60;;;7.70;99.90;;;;;;5059097;28;20021;-73
2021/10/18 01:09:23;;;;;;;1.67;1.00;;;7.70;99.90;;;;;;5079818;28;20016;-73
2021/10/18 01:11:49;;;;;;;1.38;1.05;;;7.80;99.90;;;;;;5077622;28;20483;-73
2021/10/18 01:14:15;;;;;;;7.53;1.60;;;7.80;99.90;;;;;;5081286;28;20028;-73
2021/10/18 01:16:41;;;;;;;4.55;1.30;;;7.90;99.90;;;;;;5082206;28;20028;-73
2021/10/18 01:19:16;;;;;;;4.65;1.50;;;7.80;99.90;;;;;;5062472;28;20395;-73
2021/10/18 01:21:44;;;;;;;3.38;1.48;;;7.80;99.90;;;;;;5073073;28;20108;-76
2021/10/18 01:24:10;;;;;;;2.83;1.20;;;7.80;99.90;;;;;;5079674;28;20042;-74
2021/10/18 01:26:36;;;;;;;1.90;1.15;;;7.80;99.90;;;;;;5088020;28;20020;-74
2021/10/18 01:29:02;;;;;;;3.40;1.75;;;7.90;99.90;;;;;;5078139;28;20489;-73
2021/10/18 01:31:28;;;;;;;3.58;2.00;;;7.90;99.90;;;;;;5056753;28;20109;-74
2021/10/18 01:33:54;;;;;;;3.28;1.45;;;7.90;99.90;;;;;;5062143;28;20062;-74
2021/10/18 01:36:20;;;;;;;2.83;1.52;;;7.80;99.90;;;;;;5079569;28;20025;-74
2021/10/18 01:38:46;;;;;;;1.92;1.17;;;7.80;99.90;;;;;;5081200;28;20035;-74
2021/10/18 01:41:12;;;;;;;2.05;1.20;;;7.80;99.90;;;;;;5068615;28;20468;-74
2021/10/18 01:43:38;;;;;;;2.97;1.58;;;7.70;99.90;;;;;;5080436;28;20091;-73
2021/10/18 01:46:03;;;;;;;4.40;1.88;;;7.60;99.90;;;;;;5077321;28;20498;-73
2021/10/18 01:48:30;;;;;;;3.65;1.60;;;7.60;99.90;;;;;;5072617;28;20470;-73
2021/10/18 01:50:56;;;;;;;4.28;1.60;;;7.60;99.90;;;;;;5057155;28;20727;-73
2021/10/18 01:53:21;;;;;;;2.38;1.50;;;7.60;99.90;;;;;;5076421;28;20491;-74
2021/10/18 01:55:47;;;;;;;1.60;1.23;;;7.60;99.90;;;;;;5062288;28;20115;-74
2021/10/18 01:58:13;;;;;;;4.68;1.60;;;7.60;99.90;;;;;;5062292;28;20058;-74
2021/10/18 02:00:40;;;;;;;2.75;1.42;;;7.50;99.90;;;;;;5077215;28;20035;-73
2021/10/18 02:03:06;;;;;;;2.65;1.45;;;7.30;99.90;;;;;;5082301;28;20024;-73
2021/10/18 02:05:31;;;;;;;3.67;1.40;;;7.20;99.90;;;;;;5066576;28;20024;-74
2021/10/18 02:07:57;;;;;;;1.88;1.20;;;6.90;99.90;;;;;;5071168;28;20025;-71
2021/10/18 02:10:22;;;;;;;3.55;1.60;;;7.00;99.90;;;;;;5066992;28;20025;-72
2021/10/18 02:12:48;;;;;;;4.38;1.90;;;6.90;99.90;;;;;;5079256;28;20067;-72
2021/10/18 02:15:14;;;;;;;4.72;1.88;;;6.80;99.90;;;;;;5070692;28;20035;-72
2021/10/18 02:17:41;;;;;;;2.95;1.55;;;6.80;99.90;;;;;;5084893;28;20036;-73
2021/10/18 02:20:08;;;;;;;4.80;1.75;;;6.80;99.90;;;;;;5059583;28;20020;-74
2021/10/18 02:22:34;;;;;;;4.07;1.98;;;6.70;99.90;;;;;;5074665;28;20029;-74
2021/10/18 02:25:00;;;;;;;5.45;2.03;;;6.60;99.90;;;;;;5081424;28;20025;-71
2021/10/18 02:27:26;;;;;;;2.83;1.38;;;6.30;99.90;;;;;;5082035;28;20380;-71
2021/10/18 02:29:52;;;;;;;3.70;1.92;;;6.20;99.90;;;;;;5070141;28;20020;-71
2021/10/18 02:32:18;;;;;;;2.25;1.38;;;6.30;99.90;;;;;;5067542;28;20025;-73
2021/10/18 02:34:43;;;;;;;2.78;1.35;;;6.30;99.90;;;;;;5063912;28;20044;-73
2021/10/18 02:37:09;;;;;;;2.85;1.70;;;6.30;99.90;;;;;;5084874;28;20267;-74
2021/10/18 02:39:35;;;;;;;4.10;1.90;;;6.10;99.90;;;;;;5070219;28;20474;-74
2021/10/18 02:42:00;;;;;;;4.10;1.73;;;5.90;99.90;;;;;;5087823;28;20405;-73
2021/10/18 02:44:26;;;;;;;4.68;1.73;;;5.70;99.90;;;;;;5083307;28;20016;-70
2021/10/18 02:46:51;;;;;;;4.60;1.65;;;5.80;99.90;;;;;;5083053;28;20036;-72
2021/10/18 02:49:17;;;;;;;2.63;1.27;;;5.80;99.90;;;;;;5070742;28;20037;-71
2021/10/18 02:51:43;;;;;;;3.95;1.65;;;5.80;99.90;;;;;;5055137;28;20027;-71
2021/10/18 02:54:10;;;;;;;3.65;1.70;;;5.90;99.90;;;;;;5071358;28;20031;-71
2021/10/18 02:56:36;;;;;;;3.97;2.00;;;6.20;99.90;;;;;;5081645;28;20032;-74
2021/10/18 02:59:01;;;;;;;2.60;1.35;;;6.20;99.90;;;;;;5079811;28;20039;-73
2021/10/18 03:01:27;;;;;;;3.33;1.58;;;6.00;99.90;;;;;;5089258;28;20024;-73
2021/10/18 03:03:52;;;;;;;2.70;1.40;;;6.10;99.90;;;;;;5068332;28;20024;-71
2021/10/18 03:06:18;;;;;;;9.15;2.58;;;6.00;99.90;;;;;;5063966;28;20437;-74
2021/10/18 03:08:44;;;;;;;3.38;1.70;;;6.00;99.90;;;;;;5077915;28;20016;-73
2021/10/18 03:11:09;;;;;;;7.55;2.38;;;5.90;99.90;;;;;;5062891;28;20043;-73
2021/10/18 03:13:35;;;;;;;3.30;1.45;;;6.00;99.90;;;;;;5073707;28;20021;-73
2021/10/18 03:16:00;;;;;;;3.40;1.58;;;6.30;99.90;;;;;;5069936;28;20692;-73
2021/10/18 03:18:26;;;;;;;27.63;1.60;;;6.30;99.90;;;;;;5086131;28;20028;-74
2021/10/18 03:20:52;;;;;;;2.58;0.98;;;6.50;99.90;;;;;;5071842;28;20081;-73
2021/10/18 03:23:18;;;;;;;3.80;1.73;;;6.50;99.90;;;;;;5076397;28;20087;-73
2021/10/18 03:25:44;;;;;;;4.25;1.75;;;6.50;99.90;;;;;;5077441;28;20061;-73
2021/10/18 03:28:09;;;;;;;2.95;1.52;;;6.50;99.90;;;;;;5060616;28;20060;-74
2021/10/18 03:30:35;;;;;;;5.75;2.40;;;6.50;99.90;;;;;;5079949;28;20443;-74
2021/10/18 03:33:01;;;;;;;4.22;1.60;;;6.50;99.90;;;;;;5086768;28;20036;-74
2021/10/18 03:35:27;;;;;;;3.75;1.38;;;6.50;99.90;;;;;;5063410;28;20028;-74
2021/10/18 03:37:52;;;;;;;3.15;1.60;;;6.50;99.90;;;;;;5064860;28;20115;-73
2021/10/18 03:40:18;;;;;;;8.23;2.22;;;6.40;99.90;;;;;;5075770;28;20024;-74
2021/10/18 03:42:44;;;;;;;5.10;2.40;;;6.20;99.90;;;;;;5088193;28;20024;-71
2021/10/18 03:45:11;;;;;;;3.28;1.90;;;6.20;99.90;;;;;;5074311;28;20032;-74
2021/10/18 03:47:36;;;;;;;1.80;1.20;;;6.30;99.90;;;;;;5074331;28;20197;-73
2021/10/18 03:50:04;;;;;;;4.40;1.90;;;6.60;99.90;;;;;;5063674;28;20489;-73
2021/10/18 03:52:30;;;;;;;5.38;1.30;;;6.70;99.90;;;;;;5075383;28;20108;-73
2021/10/18 03:54:55;;;;;;;3.65;1.67;;;6.70;99.90;;;;;;5077582;28;20095;-74
2021/10/18 03:57:21;;;;;;;3.08;1.30;;;6.80;99.90;;;;;;5083441;28;20492;-73
2021/10/18 03:59:47;;;;;;;3.80;1.63;;;6.80;99.90;;;;;;5067484;28;20835;-73
2021/10/18 04:02:14;;;;;;;1.75;1.23;;;6.80;99.90;;;;;;5080278;28;20033;-73
2021/10/18 04:04:40;;;;;;;4.70;2.15;;;6.80;99.90;;;;;;5077041;28;20082;-74
2021/10/18 04:07:06;;;;;;;5.25;2.25;;;6.60;99.90;;;;;;5072865;28;20135;-73
2021/10/18 04:09:32;;;;;;;3.88;1.60;;;6.50;99.90;;;;;;5056096;28;20107;-73
2021/10/18 04:11:58;;;;;;;2.33;1.48;;;6.40;99.90;;;;;;5079954;28;20020;-75
2021/10/18 04:14:23;;;;;;;4.43;1.73;;;6.30;99.90;;;;;;5067908;28;20383;-74
2021/10/18 04:16:49;;;;;;;4.22;1.60;;;6.10;99.90;;;;;;5076520;28;20039;-75
2021/10/18 04:19:14;;;;;;;3.95;1.83;;;6.10;99.90;;;;;;5062182;28;20032;-73
2021/10/18 04:21:40;;;;;;;3.75;1.45;;;6.00;99.90;;;;;;5080987;28;20437;-73
2021/10/18 04:24:06;;;;;;;3.60;1.60;;;6.30;99.90;;;;;;5075579;28;20052;-75
2021/10/18 04:26:31;;;;;;;3.38;1.77;;;6.20;99.90;;;;;;5078100;28;20499;-74
2021/10/18 04:28:57;;;;;;;4.05;1.60;;;6.20;99.90;;;;;;5074351;28;20027;-74
2021/10/18 04:31:28;;;;;;;2.95;1.45;;;6.00;99.90;;;;;;5068222;28;20024;-73
2021/10/18 04:33:57;;;;;;;3.60;1.70;;;6.00;99.90;;;;;;5060188;28;20008;-74
2021/10/18 04:36:23;;;;;;;4.30;1.92;;;5.80;99.90;;;;;;5067553;28;20013;-73
2021/10/18 04:38:49;;;;;;;6.15;1.55;;;5.80;99.90;;;;;;5073276;28;20028;-73
2021/10/18 04:41:15;;;;;;;2.90;1.45;;;5.80;99.90;;;;;;5058488;28;20024;-72
2021/10/18 04:43:41;;;;;;;3.85;1.30;;;5.80;99.90;;;;;;5077272;28;20012;-74
2021/10/18 04:46:06;;;;;;;4.78;1.60;;;5.70;99.90;;;;;;5072205;28;20048;-71
2021/10/18 04:48:32;;;;;;;4.05;1.55;;;5.40;99.90;;;;;;5075925;28;20021;-71
2021/10/18 04:50:58;;;;;;;2.40;1.48;;;5.20;99.90;;;;;;5063914;28;20450;-71
2021/10/18 04:53:23;;;;;;;4.82;1.95;;;5.20;99.90;;;;;;5072514;28;20107;-70
2021/10/18 04:55:49;;;;;;;4.15;2.00;;;5.20;99.90;;;;;;5070400;28;20395;-70
2021/10/18 04:58:15;;;;;;;3.65;1.92;;;5.00;99.90;;;;;;5065648;28;20526;-71
2021/10/18 05:00:45;;;;;;;3.03;1.60;;;5.00;99.90;;;;;;5060764;28;20031;-71
2021/10/18 05:03:10;;;;;;;5.20;1.98;;;4.90;99.90;;;;;;5057807;28;20569;-73
2021/10/18 05:05:36;;;;;;;4.60;1.85;;;4.90;99.90;;;;;;5061556;28;20119;-73
2021/10/18 05:08:04;;;;;;;4.15;2.13;;;4.80;99.90;;;;;;5052499;28;20028;-74
2021/10/18 05:10:30;;;;;;;2.53;1.50;;;4.80;99.90;;;;;;5066850;28;20614;-73
2021/10/18 05:12:56;;;;;;;2.10;1.33;;;4.70;99.90;;;;;;5077146;28;20035;-73
2021/10/18 05:15:22;;;;;;;6.60;2.58;;;4.50;99.90;;;;;;5080284;28;20582;-74
2021/10/18 05:17:47;;;;;;;4.30;1.88;;;4.40;99.90;;;;;;5069304;28;20019;-74
2021/10/18 05:20:13;;;;;;;6.57;2.22;;;4.40;99.90;;;;;;5072606;28;20093;-73
2021/10/18 05:22:39;;;;;;;2.85;1.48;;;4.40;99.90;;;;;;5060822;28;20086;-73
2021/10/18 05:25:05;;;;;;;3.13;1.48;;;4.40;99.90;;;;;;5068584;28;20028;-76
2021/10/18 05:27:30;;;;;;;4.60;2.35;;;4.50;99.90;;;;;;5072409;28;20480;-73
2021/10/18 05:29:56;;;;;;;4.47;1.95;;;4.30;99.90;;;;;;5058613;28;20031;-73
2021/10/18 05:32:21;;;;;;;6.45;2.72;;;4.40;99.90;;;;;;5072240;28;20356;-73
2021/10/18 05:34:47;;;;;;;3.72;1.77;;;4.50;99.90;;;;;;5083039;28;20508;-73
2021/10/18 05:37:13;;;;;;;2.75;1.58;;;4.40;99.90;;;;;;5075853;28;20032;-73
2021/10/18 05:39:38;;;;;;;3.03;1.48;;;4.40;99.90;;;;;;5060280;28;20024;-75
2021/10/18 05:42:04;;;;;;;4.57;1.80;;;4.50;99.90;;;;;;5062466;28;20498;-74
2021/10/18 05:44:30;;;;;;;3.90;1.70;;;4.70;99.90;;;;;;5059507;28;20031;-73
2021/10/18 05:46:55;;;;;;;3.42;1.67;;;4.80;99.90;;;;;;5073206;28;20032;-73
2021/10/18 05:49:21;;;;;;;5.47;1.98;;;4.70;99.90;;;;;;5067950;28;20361;-71
2021/10/18 05:51:47;;;;;;;3.38;1.65;;;4.60;99.90;;;;;;5072449;28;20036;-71
2021/10/18 05:54:12;;;;;;;2.78;1.50;;;4.70;99.90;;;;;;5065071;28;20024;-73
2021/10/18 05:56:38;;;;;;;4.75;1.77;;;4.90;99.90;;;;;;5085094;28;20039;-74
2021/10/18 05:59:03;;;;;;;4.63;1.95;;;4.90;99.90;;;;;;5074926;28;20101;-74
2021/10/18 06:01:29;;;;;;;3.67;1.80;;;4.80;99.90;;;;;;5064943;28;20036;-73
2021/10/18 06:03:55;;;;;;;3.20;1.83;;;4.70;99.90;;;;;;5080514;28;20026;-74
2021/10/18 06:06:22;;;;;;;6.55;1.92;;;4.80;99.90;;;;;;5076496;28;20013;-74
2021/10/18 06:08:49;;;;;;;3.17;1.70;;;4.90;99.90;;;;;;5069826;28;20054;-74
2021/10/18 06:11:16;;;;;;;3.17;1.35;;;5.10;99.90;;;;;;5079650;28;20429;-76
2021/10/18 06:13:42;;;;;;;3.88;1.85;;;5.30;99.90;;;;;;5075126;28;20020;-73
2021/10/18 06:16:08;;;;;;;5.32;1.95;;;5.50;99.90;;;;;;5075472;28;20021;-73
2021/10/18 06:18:33;;;;;;;6.70;2.25;;;5.50;99.90;;;;;;5068612;28;20031;-73
2021/10/18 06:20:59;;;;;;;17.73;2.28;;;5.50;99.90;;;;;;5082474;28;20032;-73
2021/10/18 06:23:25;;;;;;;3.17;1.70;;;5.70;99.90;;;;;;5077491;28;20403;-76
2021/10/18 06:25:51;;;;;;;7.72;2.72;;;6.00;99.90;;;;;;5064293;28;20024;-74
2021/10/18 06:28:17;;;;;;;4.78;2.03;;;6.10;99.90;;;;;;5086304;28;20020;-73
2021/10/18 06:30:43;;;;;;;8.02;1.50;;;6.30;99.90;;;;;;5082456;28;20020;-74
2021/10/18 06:33:08;;;;;;;5.63;1.60;;;6.40;99.90;;;;;;5084898;28;20341;-74
2021/10/18 06:35:35;;;;;;;3.15;1.52;;;6.40;99.90;;;;;;5061332;28;20029;-75
2021/10/18 06:38:01;;;;;;;5.28;2.22;;;6.50;99.90;;;;;;5082798;28;20433;-74
2021/10/18 06:40:27;;;;;;;6.43;2.28;;;6.40;99.90;;;;;;5063588;28;20096;-73
2021/10/18 06:42:53;;;;;;;4.70;1.52;;;6.60;99.90;;;;;;5054439;28;20032;-74
2021/10/18 06:45:19;;;;;;;4.57;1.20;;;6.60;99.90;;;;;;5073514;28;20025;-73
2021/10/18 06:47:45;;;;;;;2.45;1.05;;;6.80;99.90;;;;;;5068974;28;20020;-73
2021/10/18 06:50:11;;;;;;;9.05;2.20;;;7.10;99.90;;;;;;5074391;28;20491;-72
2021/10/18 06:52:41;;;;;;;2.95;1.52;;;7.30;99.90;;;;;;5064704;28;20020;-73
2021/10/18 06:55:10;;;;;;;4.18;2.20;;;7.50;99.90;;;;;;5075350;28;20028;-73
2021/10/18 06:57:36;;;;;;;4.18;2.03;;;7.60;99.90;;;;;;5070192;28;20048;-73
2021/10/18 07:00:06;;;;;;;4.70;1.75;;;7.60;99.90;;;;;;5074090;28;20036;-73
2021/10/18 07:02:32;;;;;;;2.88;1.33;;;7.70;99.90;;;;;;5060666;28;20113;-73
2021/10/18 07:04:57;;;;;;;5.72;2.15;;;7.90;99.90;;;;;;5076707;28;20056;-73
2021/10/18 07:07:26;;;;;;;4.65;1.98;;;8.00;99.90;;;;;;5063670;28;20123;-74
2021/10/18 07:10:00;;;;;;;5.82;2.15;;;8.10;99.90;;;;;;5078224;28;20432;-73
2021/10/18 07:12:27;;;;;;;7.00;2.63;;;8.20;99.90;;;;;;5080232;28;20379;-73
2021/10/18 07:14:53;;;;;;;8.75;2.22;;;8.40;99.90;;;;;;5063905;28;20032;-74
2021/10/18 07:17:21;;;;;;;4.43;2.05;;;8.60;99.90;;;;;;5056519;28;20035;-73
2021/10/18 07:19:48;;;;;;;8.88;1.38;;;8.80;99.90;;;;;;5077330;28;20029;-73
2021/10/18 07:22:13;;;;;;;2.88;1.77;;;8.90;99.90;;;;;;5081609;28;20484;-74
2021/10/18 07:24:39;;;;;;;4.97;2.05;;;9.00;99.90;;;;;;5082125;28;20635;-74
2021/10/18 07:27:05;;;;;;;6.25;2.33;;;9.20;99.90;;;;;;5064959;28;20396;-73
2021/10/18 07:29:30;;;;;;;6.35;2.55;;;9.30;99.90;;;;;;5062819;28;20048;-73
2021/10/18 07:31:56;;;;;;;6.85;1.92;;;9.50;99.90;;;;;;5059003;28;20025;-70
2021/10/18 07:34:22;;;;;;;5.28;2.42;;;9.60;99.90;;;;;;5069167;28;20119;-72
2021/10/18 07:36:49;;;;;;;4.90;1.98;;;9.60;99.90;;;;;;5085267;28;20471;-74
2021/10/18 07:39:20;;;;;;;5.22;1.98;;;9.70;99.90;;;;;;5080524;28;20028;-73
2021/10/18 07:41:48;;;;;;;6.55;2.35;;;9.80;99.90;;;;;;5081779;28;20082;-73
2021/10/18 07:44:13;;;;;;;3.83;1.90;;;9.80;99.90;;;;;;5074860;28;20026;-74
2021/10/18 07:46:39;;;;;;;4.85;2.10;;;9.90;99.90;;;;;;5086714;28;20094;-73
2021/10/18 07:49:05;;;;;;;3.13;1.65;;;10.00;99.90;;;;;;5068012;28;20498;-73
2021/10/18 07:51:31;;;;;;;7.47;2.63;;;10.00;99.90;;;;;;5078701;28;20372;-73
2021/10/18 07:53:56;;;;;;;6.63;2.28;;;10.10;99.90;;;;;;5065918;28;20096;-74
2021/10/18 07:56:22;;;;;;;6.47;2.17;;;10.20;99.90;;;;;;5064649;28;20459;-73
2021/10/18 07:58:47;;;;;;;7.45;3.03;;;10.40;99.90;;;;;;5078590;28;20060;-73
2021/10/18 08:01:13;;;;;;;3.95;2.10;;;10.50;99.90;;;;;;5057343;28;20436;-73
2021/10/18 08:03:38;;;;;;;8.05;3.30;;;10.70;99.90;;;;;;5082669;28;20070;-72
2021/10/18 08:06:04;;;;;;;2.85;1.60;;;10.70;99.90;;;;;;5081442;28;20341;-70
2021/10/18 08:08:30;;;;;;;6.43;2.42;;;10.80;99.90;;;;;;5080391;28;20107;-71
2021/10/18 08:10:58;;;;;;;4.28;2.03;;;10.90;99.90;;;;;;5061154;28;20039;-72
2021/10/18 08:13:23;;;;;;;6.22;2.55;;;11.00;99.90;;;;;;5079810;28;20429;-72
2021/10/18 08:15:49;;;;;;;5.20;2.03;;;11.20;99.90;;;;;;5079736;28;20028;-71
2021/10/18 08:18:14;;;;;;;6.28;2.17;;;11.30;99.90;;;;;;5061573;28;20442;-71
2021/10/18 08:20:42;;;;;;;11.05;3.28;;;11.40;99.90;;;;;;5074281;28;20050;-71
2021/10/18 08:23:08;;;;;;;7.53;3.28;;;11.60;99.90;;;;;;5072755;28;20480;-72
2021/10/18 08:25:34;;;;;;;4.70;1.88;;;12.00;99.90;;;;;;5084824;28;20016;-71
2021/10/18 08:27:59;;;;;;;5.95;2.15;;;12.30;99.90;;;;;;5058760;28;20032;-71
2021/10/18 08:30:25;;;;;;;6.80;2.90;;;12.60;99.90;;;;;;5075575;28;20032;-74
2021/10/18 08:32:51;;;;;;;8.52;2.35;;;12.60;99.90;;;;;;5064200;28;20020;-70
2021/10/18 08:35:18;;;;;;;4.75;1.60;;;12.90;99.90;;;;;;5063602;28;20115;-71
2021/10/18 08:40:33;;;;;;;4.68;1.75;;;13.50;99.90;;;;;;5075862;28;20435;-72
2021/10/18 08:43:12;;;;;;;4.57;1.85;;;13.90;99.90;;;;;;5074909;28;20110;-72
2021/10/18 08:45:40;;;;;;;6.72;3.30;;;14.30;99.90;;;;;;5078455;28;20021;-71
2021/10/18 08:48:08;;;;;;;5.10;2.28;;;14.70;99.90;;;;;;5061661;28;20029;-72
2021/10/18 08:50:33;;;;;;;4.13;1.75;;;15.30;99.90;;;;;;5062186;28;20028;-73
2021/10/18 08:52:59;;;;;;;5.22;2.10;;;15.20;99.90;;;;;;5081174;28;20030;-74
2021/10/18 08:55:24;;;;;;;6.50;2.50;;;15.30;99.90;;;;;;5073422;28;20107;-72
2021/10/18 08:57:50;;;;;;;8.23;2.47;;;15.60;99.90;;;;;;5079382;28;20457;-71
2021/10/18 09:00:36;;;;;;;8.35;2.83;;;15.40;99.90;;;;;;5072079;28;20533;-72
2021/10/18 09:03:14;;;;;;;3.45;1.63;;;15.30;99.90;;;;;;5071985;28;20032;-73
2021/10/18 09:05:40;;;;;;;9.02;2.17;;;15.10;99.90;;;;;;5075876;28;20024;-71
2021/10/18 09:08:06;;;;;;;11.05;2.35;;;14.70;99.90;;;;;;5057244;28;20025;-71
2021/10/18 09:10:31;;;;;;;10.00;2.20;;;14.90;99.90;;;;;;5064883;28;20388;-72
2021/10/18 09:13:11;;;;;;;4.63;1.92;;;15.20;99.90;;;;;;5085340;28;20103;-72
2021/10/18 09:15:36;;;;;;;8.32;2.38;;;15.30;99.90;;;;;;5080249;28;20491;-71
2021/10/18 09:18:02;;;;;;;7.20;1.98;;;14.90;99.90;;;;;;5064187;28;20033;-71
2021/10/18 09:20:33;;;;;;;8.10;3.20;;;14.90;99.90;;;;;;5083716;28;20467;-72
2021/10/18 09:23:26;;;;;;;10.45;2.05;;;15.10;99.90;;;;;;5079240;28;20024;-72
2021/10/18 09:26:06;;;;;;;6.18;2.25;;;15.50;99.90;;;;;;5060220;28;20017;-72
2021/10/18 09:28:33;;;;;;;7.68;2.20;;;15.20;99.90;;;;;;5081825;28;20120;-71
2021/10/18 09:31:00;;;;;;;5.78;2.10;;;15.10;99.90;;;;;;5084513;28;20036;-72
2021/10/18 09:33:36;;;;;;;6.47;2.20;;;15.10;99.90;;;;;;5085773;28;20483;-72
2021/10/18 09:36:04;;;;;;;5.10;1.90;;;15.40;99.90;;;;;;5077408;28;20035;-75
2021/10/18 09:38:30;;;;;;;4.40;1.75;;;15.60;99.90;;;;;;5082710;28;20073;-72
2021/10/18 09:40:58;;;;;;;4.25;1.67;;;16.10;99.90;;;;;;5085614;28;20024;-72
2021/10/18 09:43:41;;;;;;;5.30;2.05;;;16.10;99.90;;;;;;5087697;28;20024;-71
2021/10/18 10:56:37;;;;;;;3.60;1.23;;;18.70;94.90;;;;;;5085750;28;20068;-73
2021/10/18 10:59:21;;;;;;;3.03;1.33;;;18.70;96.00;;;;;;5069758;28;20044;-72
2021/10/18 11:01:54;;;;;;;3.90;1.40;;;18.50;95.10;;;;;;5043522;28;20052;-74
2021/10/18 11:04:32;;;;;;;5.05;1.38;;;18.50;94.50;;;;;;5051990;28;20434;-74
2021/10/18 11:07:00;;;;;;;3.05;1.17;;;18.80;95.20;;;;;;5049415;28;20453;-74
2021/10/18 11:09:44;;;;;;;4.20;1.33;;;19.40;93.60;;;;;;5058318;28;20279;-73
2021/10/18 11:12:34;;;;;;;3.63;1.20;;;19.20;94.00;;;;;;5067474;28;20550;-74
2021/10/18 11:15:13;;;;;;;4.13;1.52;;;19.80;93.60;;;;;;5067906;28;20547;-74
2021/10/18 11:17:44;;;;;;;6.90;1.63;;;19.70;93.20;;;;;;5067426;28;20021;-73
2021/10/18 11:20:16;;;;;;;5.00;1.70;;;19.40;92.70;;;;;;5065422;28;20115;-73
2021/10/18 11:22:44;;;;;;;4.55;1.13;;;19.30;92.80;;;;;;5051370;28;20028;-73
2021/10/18 11:25:12;;;;;;;2.80;1.10;;;19.20;93.20;;;;;;5063815;28;20507;-75
2021/10/18 11:27:40;;;;;;;3.38;1.10;;;19.20;92.70;;;;;;5065639;28;20452;-74
2021/10/18 11:30:17;;;;;;;2.53;1.02;;;19.40;93.20;;;;;;5038575;28;20095;-73
2021/10/18 11:33:00;;;;;;;7.18;1.30;;;19.30;92.60;;;;;;5061213;28;20133;-74
2021/10/18 11:35:28;;;;;;;3.10;1.13;;;19.40;93.10;;;;;;5062591;28;20349;-74
2021/10/18 11:38:07;;;;;;;4.50;1.30;;;19.90;92.20;;;;;;5069522;28;20025;-74
2021/10/18 11:40:42;;;;;;;2.90;0.97;;;19.70;91.70;;;;;;5048775;28;20068;-74
2021/10/18 11:43:12;;;;;;;4.25;1.33;;;19.90;91.60;;;;;;5068516;28;20178;-75
2021/10/18 11:45:44;;;;;;;5.05;1.65;;;19.40;92.10;;;;;;5056339;28;20036;-74
2021/10/18 11:48:12;;;;;;;2.20;1.10;;;19.40;92.80;;;;;;5048873;28;20035;-75
2021/10/18 11:50:43;;;;;;;3.60;1.15;;;19.90;92.50;;;;;;5049510;28;20031;-73
2021/10/18 11:53:20;;;;;;;2.47;0.93;;;19.70;92.20;;;;;;5066302;28;20074;-74
2021/10/18 11:55:50;;;;;;;3.17;1.20;;;20.70;91.10;;;;;;5066828;28;20036;-74
2021/10/18 11:58:22;;;;;;;2.38;1.00;;;21.10;90.50;;;;;;5039348;28;20049;-75
2021/10/18 12:00:58;;;;;;;4.50;1.30;;;21.10;89.20;;;;;;5041422;28;20025;-75
2021/10/18 12:03:24;;;;;;;3.67;1.48;;;20.60;90.10;;;;;;5037847;28;20017;-75
2021/10/18 12:05:55;;;;;;;1.92;0.93;;;20.40;90.80;;;;;;5056759;28;20111;-73
2021/10/18 12:08:29;;;;;;;4.28;1.30;;;20.20;90.20;;;;;;5061124;28;20024;-74
2021/10/18 12:10:56;;;;;;;4.30;1.27;;;19.80;91.30;;;;;;5043487;28;20436;-74
2021/10/18 12:13:33;;;;;;;5.47;1.08;;;20.10;91.60;;;;;;5044599;28;20025;-75
2021/10/18 12:16:08;;;;;;;4.40;1.30;;;19.90;91.10;;;;;;5064427;28;20028;-75
2021/10/18 12:18:42;;;;;;;2.60;1.08;;;19.80;92.20;;;;;;5047932;28;20056;-74
2021/10/18 12:21:10;;;;;;;4.13;1.30;;;20.10;91.80;;;;;;5047988;28;20549;-74
2021/10/18 12:23:57;;;;;;;4.22;1.40;;;20.60;91.80;;;;;;5054481;28;20016;-74
2021/10/18 12:26:25;;;;;;;2.90;0.95;;;21.70;89.40;;;;;;5054693;28;20622;-74
2021/10/18 12:29:08;;;;;;;2.10;1.00;;;22.10;87.50;;;;;;5046804;28;20029;-74
2021/10/18 12:31:37;;;;;;;4.85;1.27;;;22.30;85.90;;;;;;5055718;28;20029;-74
2021/10/18 12:34:18;;;;;;;4.28;1.30;;;21.80;86.70;;;;;;5045772;28;20021;-74
2021/10/18 12:37:25;;;;;;;3.03;1.17;;;21.80;86.70;;;;;;5040655;28;20021;-74
2021/10/18 12:39:54;;;;;;;4.32;1.48;;;21.40;87.80;;;;;;5061133;28;20024;-74
2021/10/18 12:42:20;;;;;;;2.05;1.08;;;21.90;86.80;;;;;;5036191;28;20055;-75
2021/10/18 12:44:47;;;;;;;3.47;1.33;;;21.60;86.20;;;;;;5061215;28;20021;-74
2021/10/18 12:47:25;;;;;;;1.75;0.98;;;21.90;86.60;;;;;;5063130;28;20020;-74
2021/10/18 12:50:06;;;;;;;2.58;0.90;;;20.90;87.80;;;;;;5045595;28;20112;-74
2021/10/18 12:52:34;;;;;;;5.95;1.38;;;21.60;86.90;;;;;;5062270;28;20041;-74
2021/10/18 12:55:11;;;;;;;3.20;0.88;;;21.90;87.10;;;;;;5055400;28;20505;-74
2021/10/18 12:57:47;;;;;;;2.33;1.02;;;22.70;83.00;;;;;;5049138;28;20048;-74
2021/10/18 13:00:15;;;;;;;5.00;1.35;;;22.90;81.70;;;;;;5074521;28;20016;-75
2021/10/18 13:02:45;;;;;;;2.20;0.80;;;22.40;83.00;;;;;;5080753;28;20104;-74
2021/10/18 13:05:11;;;;;;;2.83;1.00;;;21.90;84.40;;;;;;5056593;28;20033;-74
2021/10/18 13:07:43;;;;;;;3.10;1.00;;;22.20;84.20;;;;;;5054130;28;20028;-74
2021/10/18 13:10:14;;;;;;;2.22;1.00;;;22.90;83.20;;;;;;5063588;28;20372;-74
2021/10/18 13:12:40;;;;;;;3.67;1.23;;;21.70;84.90;;;;;;5074981;28;20111;-73
2021/10/18 13:15:07;;;;;;;3.42;1.05;;;21.10;87.30;;;;;;5072075;28;20029;-74
2021/10/18 13:17:33;;;;;;;2.20;1.00;;;20.30;87.50;;;;;;5072512;28;20035;-74
2021/10/18 13:19:59;;;;;;;4.47;1.40;;;19.60;90.70;;;;;;5069428;28;20028;-74
2021/10/18 13:22:25;;;;;;;3.65;1.20;;;19.50;90.80;;;;;;5055083;28;20103;-76
2021/10/18 13:24:51;;;;;;;3.58;1.27;;;19.60;91.00;;;;;;5069506;28;20025;-76
2021/10/18 13:27:18;;;;;;;3.38;1.13;;;19.40;90.40;;;;;;5061529;28;20017;-75
2021/10/18 13:29:44;;;;;;;4.00;1.27;;;19.30;91.30;;;;;;5057302;28;20036;-74
2021/10/18 13:32:12;;;;;;;4.60;1.30;;;18.90;91.90;;;;;;5062105;28;20047;-73
2021/10/18 13:34:38;;;;;;;1.85;0.95;;;18.80;92.50;;;;;;5073440;28;20016;-73
2021/10/18 13:37:03;;;;;;;0.80;0.70;;;18.70;92.30;;;;;;5071303;28;20078;-73
2021/10/18 13:39:29;;;;;;;3.05;1.25;;;18.50;92.50;;;;;;5079814;28;20430;-74
2021/10/18 13:41:56;;;;;;;3.63;1.30;;;18.40;92.90;;;;;;5069071;28;20032;-74
2021/10/18 13:44:21;;;;;;;1.92;1.00;;;18.30;92.70;;;;;;5058155;28;20020;-73
2021/10/18 13:46:47;;;;;;;2.15;1.10;;;18.30;93.10;;;;;;5076434;28;20434;-73
2021/10/18 13:49:13;;;;;;;2.17;0.93;;;18.00;93.20;;;;;;5074362;28;20025;-73
2021/10/18 13:51:40;;;;;;;3.13;1.13;;;18.10;94.20;;;;;;5068619;28;20507;-73
2021/10/18 13:54:07;;;;;;;2.75;1.02;;;18.20;93.50;;;;;;5075402;28;20082;-74
2021/10/18 13:56:34;;;;;;;3.20;0.95;;;18.00;93.60;;;;;;5061976;28;20078;-74
2021/10/18 13:59:00;;;;;;;2.72;1.08;;;18.40;93.90;;;;;;5063682;28;20040;-74
2021/10/18 14:01:25;;;;;;;3.95;1.48;;;18.60;93.60;;;;;;5078268;28;20123;-74
2021/10/18 14:03:51;;;;;;;3.15;1.10;;;18.60;92.90;;;;;;5059365;28;20039;-74
2021/10/18 14:06:17;;;;;;;2.17;1.00;;;18.50;94.00;;;;;;5077026;28;20146;-75
2021/10/18 14:08:42;;;;;;;3.95;1.20;;;18.30;93.30;;;;;;5081487;28;20051;-74